createdAt,value
2018-02-27T00:04:12.342Z,100238.90
2018-02-27T00:10:16.929Z,100237.59
2018-02-27T00:16:21.893Z,100235.63
2018-02-27T00:22:26.565Z,100238.23
2018-02-27T00:28:31.235Z,100228.97
2018-02-27T00:34:35.930Z,100229.07
2018-02-27T00:40:40.677Z,100218.06
2018-02-27T00:46:46.237Z,100210.94
2018-02-27T00:52:51.575Z,100206.54
2018-02-27T00:58:56.632Z,100204.89
2018-02-27T01:05:01.555Z,100199.85
2018-02-27T01:11:06.186Z,100193.30
2018-02-27T01:17:11.045Z,100185.95
2018-02-27T01:23:15.715Z,100184.97
2018-02-27T01:29:20.356Z,100182.51
2018-02-27T01:35:25.053Z,100179.13
2018-02-27T01:41:30.480Z,100171.55
2018-02-27T01:47:35.082Z,100177.52
2018-02-27T01:53:39.823Z,100180.50
2018-02-27T01:59:45.196Z,100169.61
2018-02-27T02:05:51.310Z,100169.74
2018-02-27T02:11:55.974Z,100167.94
2018-02-27T02:18:01.227Z,100161.61
2018-02-27T02:24:06.010Z,100159.18
2018-02-27T02:30:10.635Z,100155.16
2018-02-27T02:36:15.258Z,100156.20
2018-02-27T02:42:23.410Z,100148.53
2018-02-27T02:48:29.188Z,100143.74
2018-02-27T02:54:34.135Z,100141.97
2018-02-27T03:00:39.892Z,100143.99
2018-02-27T03:06:44.660Z,100142.09
2018-02-27T03:12:49.899Z,100133.79
2018-02-27T03:18:55.048Z,100139.32
2018-02-27T03:24:59.862Z,100123.20
2018-02-27T03:31:05.091Z,100124.91
2018-02-27T03:37:09.894Z,100117.11
2018-02-27T03:43:14.642Z,100123.31
2018-02-27T03:49:20.625Z,100122.11
2018-02-27T03:55:27.316Z,100118.28
2018-02-27T04:01:32.058Z,100112.11
2018-02-27T04:07:37.115Z,100112.69
2018-02-27T04:13:41.968Z,100107.25
2018-02-27T04:19:46.922Z,100116.26
2018-02-27T04:25:53.354Z,100107.70
2018-02-27T04:31:58.785Z,100102.48
2018-02-27T04:38:03.773Z,100111.66
2018-02-27T04:44:08.563Z,100106.62
2018-02-27T04:50:13.666Z,100109.82
2018-02-27T04:56:19.821Z,100106.63
2018-02-27T05:02:25.965Z,100104.47
2018-02-27T05:08:31.572Z,100104.41
2018-02-27T05:14:36.937Z,100108.11
2018-02-27T05:20:42.375Z,100100.31
2018-02-27T05:26:47.109Z,100102.91
2018-02-27T05:32:53.094Z,100102.92
2018-02-27T05:38:58.808Z,100096.08
2018-02-27T05:45:03.975Z,100095.45
2018-02-27T05:51:08.899Z,100101.91
2018-02-27T05:57:14.949Z,100101.53
2018-02-27T06:03:19.669Z,100103.45
2018-02-27T06:09:26.717Z,100104.34
2018-02-27T06:15:32.124Z,100100.55
2018-02-27T06:21:36.888Z,100099.98
2018-02-27T06:27:41.543Z,100100.90
2018-02-27T06:33:46.173Z,100105.13
2018-02-27T06:39:50.955Z,100100.63
2018-02-27T06:45:56.708Z,100103.41
2018-02-27T06:52:01.679Z,100095.25
2018-02-27T06:58:06.367Z,100099.08
2018-02-27T07:04:11.963Z,100093.45
2018-02-27T07:10:17.228Z,100089.15
2018-02-27T07:16:24.421Z,100089.81
2018-02-27T07:22:30.131Z,100090.52
2018-02-27T07:28:34.789Z,100088.50
2018-02-27T07:34:40.264Z,100088.86
2018-02-27T07:40:46.394Z,100093.39
2018-02-27T07:46:52.721Z,100087.80
2018-02-27T07:52:58.442Z,100082.41
2018-02-27T07:59:03.128Z,100079.02
2018-02-27T08:05:08.643Z,100083.87
2018-02-27T08:11:13.419Z,100086.26
2018-02-27T08:17:18.482Z,100084.54
2018-02-27T08:23:23.194Z,100081.99
2018-02-27T08:29:27.842Z,100085.98
2018-02-27T08:35:33.242Z,100072.52
2018-02-27T08:41:37.941Z,100057.72
2018-02-27T08:47:43.392Z,100064.95
2018-02-27T08:53:48.176Z,100061.57
2018-02-27T08:59:53.467Z,100066.66
2018-02-27T09:05:58.281Z,100058.47
2018-02-27T09:12:03.756Z,100043.38
2018-02-27T09:18:08.726Z,100045.46
2018-02-27T09:24:13.779Z,100031.38
2018-02-27T09:30:19.651Z,100022.76
2018-02-27T09:36:25.317Z,100014.38
2018-02-27T09:42:30.089Z,100005.55
2018-02-27T09:48:36.696Z,100004.25
2018-02-27T09:54:41.345Z,100004.01
2018-02-27T10:00:46.072Z,100001.24
2018-02-27T10:06:55.301Z,99989.31
2018-02-27T10:12:59.914Z,99985.11
2018-02-27T10:19:04.627Z,99992.44
2018-02-27T10:25:09.204Z,99988.06
2018-02-27T10:31:14.049Z,99973.33
2018-02-27T10:37:18.951Z,99965.38
2018-02-27T10:43:24.095Z,99969.47
2018-02-27T10:49:29.138Z,99957.30
2018-02-27T10:55:33.911Z,99954.10
2018-02-27T11:01:38.493Z,99944.72
2018-02-27T11:07:43.810Z,99937.73
2018-02-27T11:13:48.869Z,99923.70
2018-02-27T11:19:56.448Z,99918.03
2018-02-27T11:26:01.381Z,99913.47
2018-02-27T11:32:06.197Z,99895.45
2018-02-27T11:38:10.851Z,99895.27
2018-02-27T11:44:20.302Z,99890.51
2018-02-27T11:50:26.940Z,99884.02
2018-02-27T11:56:35.818Z,99873.95
2018-02-27T12:02:43.429Z,99879.28
2018-02-27T12:08:52.895Z,99864.14
2018-02-27T12:15:00.996Z,99868.07
2018-02-27T12:21:05.810Z,99862.10
2018-02-27T12:33:50.774Z,99852.84
2018-02-27T12:40:00.689Z,99847.52
2018-02-27T12:46:20.082Z,99837.00
2018-02-27T13:02:23.423Z,99821.97
2018-02-27T13:08:35.988Z,99813.62
2018-02-27T13:14:57.300Z,99810.84
2018-02-27T13:21:02.304Z,99809.02
2018-02-27T13:27:09.794Z,99802.28
2018-02-27T13:33:14.943Z,99803.86
2018-02-27T13:39:20.867Z,99802.78
2018-02-27T13:45:25.956Z,99793.17
2018-02-27T13:51:31.527Z,99786.48
2018-02-27T13:57:36.444Z,99791.56
2018-02-27T14:03:41.090Z,99787.05
2018-02-27T14:09:47.674Z,99787.42
2018-02-27T14:15:52.514Z,99774.44
2018-02-27T14:22:00.572Z,99772.41
2018-02-27T14:28:05.832Z,99770.57
2018-02-27T14:34:11.250Z,99758.73
2018-02-27T14:40:15.993Z,99760.21
2018-02-27T14:46:21.003Z,99754.38
2018-02-27T14:52:26.318Z,99752.11
2018-02-27T14:58:31.141Z,99757.37
2018-02-27T15:04:35.816Z,99758.42
2018-02-27T15:10:40.535Z,99763.05
2018-02-27T15:16:46.291Z,99759.36
2018-02-27T15:22:51.582Z,99761.10
2018-02-27T15:28:56.214Z,99763.77
2018-02-27T15:35:01.357Z,99756.27
2018-02-27T15:41:06.312Z,99750.10
2018-02-27T15:47:11.000Z,99750.11
2018-02-27T15:53:16.122Z,99749.30
2018-02-27T15:59:24.094Z,99747.08
2018-02-27T16:05:29.315Z,99746.35
2018-02-27T16:11:36.386Z,99740.00
2018-02-27T16:17:42.500Z,99743.07
2018-02-27T16:23:50.832Z,99747.64
2018-02-27T16:29:55.614Z,99755.06
2018-02-27T16:36:00.353Z,99753.48
2018-02-27T16:42:05.574Z,99761.27
2018-02-27T16:48:10.293Z,99761.10
2018-02-27T16:54:15.690Z,99766.97
2018-02-27T17:00:21.268Z,99758.20
2018-02-27T17:06:26.782Z,99769.12
2018-02-27T17:12:31.507Z,99771.50
2018-02-27T17:18:36.115Z,99775.67
2018-02-27T17:24:40.834Z,99770.87
2018-02-27T17:30:45.456Z,99774.90
2018-02-27T17:36:51.718Z,99778.38
2018-02-27T17:42:56.431Z,99781.20
2018-02-27T17:49:01.609Z,99788.93
2018-02-27T17:55:06.476Z,99781.25
2018-02-27T18:01:11.183Z,99779.75
2018-02-27T18:07:16.024Z,99781.58
2018-02-27T18:13:21.029Z,99779.37
2018-02-27T18:19:25.747Z,99784.23
2018-02-27T18:25:31.176Z,99791.45
2018-02-27T18:31:36.019Z,99791.98
2018-02-27T18:37:40.833Z,99793.44
2018-02-27T18:43:45.720Z,99803.47
2018-02-27T18:49:50.867Z,99806.39
2018-02-27T18:55:55.813Z,99816.17
2018-02-27T19:02:00.465Z,99812.21
2018-02-27T19:08:05.869Z,99819.17
2018-02-27T19:14:11.225Z,99821.72
2018-02-27T19:20:15.889Z,99829.41
2018-02-27T19:26:21.576Z,99826.95
2018-02-27T19:32:27.751Z,99831.27
2018-02-27T19:38:33.475Z,99837.98
2018-02-27T19:44:38.851Z,99848.64
2018-02-27T19:50:43.454Z,99846.05
2018-02-27T19:56:49.157Z,99856.05
2018-02-27T20:02:56.741Z,99859.41
2018-02-27T20:09:01.380Z,99860.59
2018-02-27T20:15:06.150Z,99860.56
2018-02-27T20:21:11.018Z,99860.55
2018-02-27T20:27:15.673Z,99872.17
2018-02-27T20:33:21.126Z,99868.64
2018-02-27T20:39:26.183Z,99878.78
2018-02-27T20:45:31.698Z,99881.72
2018-02-27T20:51:36.358Z,99885.84
2018-02-27T20:57:41.143Z,99891.69
2018-02-27T21:03:46.033Z,99892.44
2018-02-27T21:09:51.916Z,99898.66
2018-02-27T21:15:56.975Z,99896.47
2018-02-27T21:22:01.771Z,99896.69
2018-02-27T21:28:06.867Z,99907.52
2018-02-27T21:34:11.773Z,99917.80
2018-02-27T21:40:16.935Z,99922.05
2018-02-27T21:46:23.257Z,99914.14
2018-02-27T21:52:28.354Z,99918.20
2018-02-27T21:58:34.280Z,99913.80
2018-02-27T22:04:39.092Z,99917.61
2018-02-27T22:10:44.612Z,99923.58
2018-02-27T22:16:50.661Z,99932.31
2018-02-27T22:22:56.165Z,99932.93
2018-02-27T22:29:01.844Z,99933.88
2018-02-27T22:35:06.503Z,99937.31
2018-02-27T22:41:11.326Z,99943.34
2018-02-27T22:47:16.088Z,99948.52
2018-02-27T22:53:22.358Z,99950.59
2018-02-27T22:59:27.771Z,99949.33
2018-02-27T23:05:32.454Z,99959.58
2018-02-27T23:11:37.189Z,99952.11
2018-02-27T23:17:43.040Z,99960.94
2018-02-27T23:23:51.399Z,99964.19
2018-02-27T23:29:59.469Z,99969.86
2018-02-27T23:36:04.240Z,99972.77
2018-02-27T23:42:08.912Z,99978.01
2018-02-27T23:48:14.562Z,99982.23
2018-02-27T23:54:20.850Z,99979.82
